Time;durP1;ratioP1;P1;durP2;ratioP2;P2;SDS_P1;SDS_P2;PMS_P1;PMS_P2;Temp;Humidity;BMP_temperature;BMP_pressure;BME280_temperature;BME280_humidity;BME280_pressure;Samples;Min_cycle;Max_cycle;Signal;HPM_P1;HPM_P2
2023/09/27 00:00:13;;;;;;;15.85;13.93;;;18.50;99.90;;;;;;5089781;28;20380;-80
2023/09/27 00:02:40;;;;;;;16.40;14.13;;;18.50;99.90;;;;;;5086501;28;20078;-81
2023/09/27 00:05:07;;;;;;;15.48;13.88;;;18.50;99.90;;;;;;5101945;28;20456;-81
2023/09/27 00:07:41;;;;;;;15.75;14.13;;;18.50;99.90;;;;;;5072914;28;20394;-82
2023/09/27 00:10:09;;;;;;;18.13;15.18;;;18.60;99.90;;;;;;5109427;28;20031;-82
2023/09/27 00:12:35;;;;;;;17.95;15.15;;;18.60;99.90;;;;;;5089069;28;20028;-82
2023/09/27 00:15:03;;;;;;;16.95;15.18;;;18.60;99.90;;;;;;5071719;28;20418;-83
2023/09/27 00:17:30;;;;;;;17.60;15.80;;;18.60;99.90;;;;;;5085436;28;20047;-81
2023/09/27 00:19:55;;;;;;;17.20;15.40;;;18.50;99.90;;;;;;5086236;28;20042;-81
2023/09/27 00:22:21;;;;;;;18.25;16.33;;;18.60;99.90;;;;;;5081406;28;20670;-81
2023/09/27 00:24:48;;;;;;;17.42;15.30;;;18.50;99.90;;;;;;5087479;28;20077;-81
2023/09/27 00:27:20;;;;;;;16.55;14.75;;;18.50;99.90;;;;;;5081464;28;20106;-80
2023/09/27 00:29:46;;;;;;;16.30;14.60;;;18.40;99.90;;;;;;5103021;28;20058;-80
2023/09/27 00:32:13;;;;;;;19.70;16.98;;;18.40;99.90;;;;;;5065231;27;20433;-81
2023/09/27 00:34:39;;;;;;;16.45;14.85;;;18.50;99.90;;;;;;5085175;28;20051;-81
2023/09/27 00:37:04;;;;;;;16.92;14.95;;;18.40;99.90;;;;;;5082789;28;20040;-81
2023/09/27 00:39:30;;;;;;;16.58;14.93;;;18.40;99.90;;;;;;5102066;28;20046;-81
2023/09/27 00:41:56;;;;;;;15.77;14.05;;;18.40;99.90;;;;;;5081715;28;20032;-81
2023/09/27 00:44:22;;;;;;;16.80;14.85;;;18.40;99.90;;;;;;5101348;28;20031;-81
2023/09/27 00:46:49;;;;;;;15.75;14.15;;;18.40;99.90;;;;;;5083158;28;20118;-81
2023/09/27 00:49:16;;;;;;;15.65;14.00;;;18.40;99.90;;;;;;5093284;28;20042;-81
2023/09/27 00:51:42;;;;;;;15.23;13.30;;;18.30;99.90;;;;;;5064703;28;20358;-81
2023/09/27 00:54:10;;;;;;;16.73;14.05;;;18.20;99.90;;;;;;5074450;28;20039;-81
2023/09/27 00:56:36;;;;;;;14.95;13.35;;;18.20;99.90;;;;;;5099940;28;20039;-81
2023/09/27 00:59:03;;;;;;;17.05;15.38;;;18.20;99.90;;;;;;5065728;27;20092;-81
2023/09/27 01:01:29;;;;;;;16.45;14.63;;;18.20;99.90;;;;;;5080817;27;20047;-81
2023/09/27 01:03:54;;;;;;;18.95;15.07;;;18.20;99.90;;;;;;5082492;27;20130;-81
2023/09/27 01:06:23;;;;;;;18.92;16.40;;;18.20;99.90;;;;;;5085060;28;20142;-80
2023/09/27 01:08:49;;;;;;;19.13;16.23;;;18.10;99.90;;;;;;5084052;27;20044;-80
2023/09/27 01:11:16;;;;;;;18.15;15.70;;;18.20;99.90;;;;;;5094485;28;20039;-80
2023/09/27 01:13:42;;;;;;;17.33;15.48;;;18.10;99.90;;;;;;5084337;27;20146;-80
2023/09/27 01:16:08;;;;;;;19.50;16.05;;;18.10;99.90;;;;;;5083856;27;20039;-80
2023/09/27 01:18:33;;;;;;;16.70;15.05;;;18.10;99.90;;;;;;5101621;27;20134;-80
2023/09/27 01:21:01;;;;;;;17.20;14.43;;;18.10;99.90;;;;;;5094383;27;20038;-80
2023/09/27 01:23:28;;;;;;;18.48;16.40;;;18.10;99.90;;;;;;5080794;27;20050;-81
2023/09/27 01:26:01;;;;;;;19.88;17.80;;;18.10;99.90;;;;;;5074766;27;20054;-81
2023/09/27 01:28:29;;;;;;;19.95;17.75;;;18.10;99.90;;;;;;5081359;27;20522;-79
2023/09/27 01:30:55;;;;;;;17.83;16.08;;;18.10;99.90;;;;;;5079027;27;20100;-80
2023/09/27 01:33:21;;;;;;;20.92;16.80;;;17.90;99.90;;;;;;5075603;27;20047;-80
2023/09/27 01:35:46;;;;;;;16.65;15.02;;;18.00;99.90;;;;;;5083420;27;20096;-80
2023/09/27 01:38:15;;;;;;;18.75;16.75;;;18.00;99.90;;;;;;5103453;27;20031;-82
2023/09/27 01:40:43;;;;;;;20.05;17.98;;;18.00;99.90;;;;;;5105471;27;20035;-82
2023/09/27 01:43:09;;;;;;;19.88;17.92;;;18.00;99.90;;;;;;5091248;27;20142;-80
2023/09/27 01:45:36;;;;;;;21.95;19.13;;;18.00;99.90;;;;;;5069882;27;20153;-80
2023/09/27 01:48:04;;;;;;;21.08;18.88;;;18.00;99.90;;;;;;5079067;27;20467;-81
2023/09/27 01:50:33;;;;;;;19.00;17.13;;;18.00;99.90;;;;;;5079875;27;20047;-81
2023/09/27 01:52:59;;;;;;;22.85;19.02;;;18.00;99.90;;;;;;5109084;27;20099;-81
2023/09/27 01:55:25;;;;;;;19.40;17.40;;;18.00;99.90;;;;;;5104764;27;20045;-80
2023/09/27 01:57:52;;;;;;;22.20;19.90;;;18.00;99.90;;;;;;5073126;27;20061;-81
2023/09/27 02:00:19;;;;;;;19.65;17.83;;;17.90;99.90;;;;;;5087851;27;20042;-81
2023/09/27 02:02:49;;;;;;;22.50;19.30;;;17.90;99.90;;;;;;5090338;27;20053;-80
2023/09/27 02:05:15;;;;;;;21.65;19.35;;;17.90;99.90;;;;;;5107518;28;20031;-80
2023/09/27 02:07:41;;;;;;;19.92;17.85;;;17.90;99.90;;;;;;5062067;28;20040;-81
2023/09/27 02:10:11;;;;;;;20.95;18.10;;;17.90;99.90;;;;;;5058872;27;20467;-81
2023/09/27 02:12:39;;;;;;;19.48;17.58;;;17.90;99.90;;;;;;5090058;28;20089;-82
2023/09/27 02:15:06;;;;;;;21.73;19.42;;;17.90;99.90;;;;;;5094690;27;20119;-81
2023/09/27 02:17:31;;;;;;;21.60;19.33;;;17.90;99.90;;;;;;5063668;27;20075;-81
2023/09/27 02:19:57;;;;;;;20.10;18.13;;;17.90;99.90;;;;;;5097516;27;20521;-81
2023/09/27 02:22:23;;;;;;;21.00;18.77;;;17.80;99.90;;;;;;5057817;27;20039;-82
2023/09/27 02:24:49;;;;;;;20.70;18.45;;;17.80;99.90;;;;;;5086904;27;20560;-82
2023/09/27 02:27:15;;;;;;;19.90;17.77;;;17.80;99.90;;;;;;5085417;27;20039;-81
2023/09/27 02:29:44;;;;;;;22.38;19.95;;;17.70;99.90;;;;;;5106972;27;20112;-81
2023/09/27 02:32:10;;;;;;;22.77;20.42;;;17.70;99.90;;;;;;5068221;27;20031;-82
2023/09/27 02:34:35;;;;;;;22.58;20.27;;;17.80;99.90;;;;;;5091600;27;20034;-82
2023/09/27 02:37:02;;;;;;;21.55;19.35;;;17.80;99.90;;;;;;5081017;27;20376;-81
2023/09/27 02:39:31;;;;;;;20.90;18.80;;;17.70;99.90;;;;;;5088491;27;20053;-81
2023/09/27 02:41:57;;;;;;;20.45;18.45;;;17.70;99.90;;;;;;5102923;28;20043;-81
2023/09/27 02:44:23;;;;;;;21.10;18.80;;;17.70;99.90;;;;;;5073875;28;20414;-81
2023/09/27 02:46:51;;;;;;;23.40;20.90;;;17.70;99.90;;;;;;5098894;28;20040;-82
2023/09/27 02:49:19;;;;;;;22.00;19.70;;;17.60;99.90;;;;;;5101813;27;20045;-81
2023/09/27 02:51:47;;;;;;;27.20;22.75;;;17.60;99.90;;;;;;5077031;28;20027;-80
2023/09/27 02:54:14;;;;;;;22.75;20.35;;;17.60;99.90;;;;;;5106848;27;20035;-81
2023/09/27 02:56:42;;;;;;;24.00;21.48;;;17.60;99.90;;;;;;5075206;27;20035;-82
2023/09/27 02:59:08;;;;;;;25.38;22.67;;;17.60;99.90;;;;;;5109151;28;20403;-81
2023/09/27 03:01:33;;;;;;;24.08;21.35;;;17.60;99.90;;;;;;5101365;28;20043;-81
2023/09/27 03:03:59;;;;;;;22.65;19.92;;;17.60;99.90;;;;;;5084952;27;20043;-82
2023/09/27 03:06:25;;;;;;;24.73;20.80;;;17.60;99.90;;;;;;5089708;27;20039;-81
2023/09/27 03:08:53;;;;;;;21.35;18.98;;;17.60;99.90;;;;;;5065092;28;20074;-81
2023/09/27 03:11:18;;;;;;;22.40;19.98;;;17.60;99.90;;;;;;5062868;28;20035;-82
2023/09/27 03:13:44;;;;;;;22.77;20.38;;;17.60;99.90;;;;;;5053302;28;20087;-82
2023/09/27 03:16:10;;;;;;;22.58;20.38;;;17.60;99.90;;;;;;5065618;28;20135;-82
2023/09/27 03:18:37;;;;;;;25.55;22.00;;;17.60;99.90;;;;;;5076281;28;20075;-82
2023/09/27 03:21:02;;;;;;;23.98;21.52;;;17.60;99.90;;;;;;5086699;28;20043;-82
2023/09/27 03:23:29;;;;;;;23.77;21.23;;;17.60;99.90;;;;;;5095217;27;20039;-82
2023/09/27 03:25:56;;;;;;;22.92;20.60;;;17.80;99.90;;;;;;5078739;27;20494;-82
2023/09/27 03:28:22;;;;;;;21.50;18.98;;;17.60;99.90;;;;;;5095001;27;20063;-81
2023/09/27 03:30:48;;;;;;;23.80;20.88;;;17.60;99.90;;;;;;5077054;27;20035;-81
2023/09/27 03:33:14;;;;;;;26.83;23.77;;;17.60;99.90;;;;;;5085249;28;20035;-81
2023/09/27 03:35:41;;;;;;;22.80;20.15;;;17.60;99.90;;;;;;5106046;28;20126;-80
2023/09/27 03:38:07;;;;;;;23.95;20.75;;;17.60;99.90;;;;;;5087252;27;20133;-80
2023/09/27 03:40:33;;;;;;;21.50;19.13;;;17.60;99.90;;;;;;5103259;28;20054;-81
2023/09/27 03:42:59;;;;;;;22.95;20.55;;;17.60;99.90;;;;;;5085547;27;20391;-81
2023/09/27 03:45:25;;;;;;;22.95;20.42;;;17.50;99.90;;;;;;5086071;28;20042;-81
2023/09/27 03:47:51;;;;;;;24.80;21.95;;;17.60;99.90;;;;;;5105251;28;20376;-80
2023/09/27 03:50:17;;;;;;;25.40;22.90;;;17.60;99.90;;;;;;5124825;28;20146;-82
2023/09/27 03:52:44;;;;;;;25.83;23.02;;;17.60;99.90;;;;;;5111623;28;20035;-81
2023/09/27 03:55:11;;;;;;;23.17;20.58;;;17.60;99.90;;;;;;5076845;28;20043;-83
2023/09/27 03:57:37;;;;;;;25.52;22.83;;;17.60;99.90;;;;;;5076988;28;20039;-82
2023/09/27 04:00:12;;;;;;;25.98;23.20;;;17.60;99.90;;;;;;5098670;28;20050;-82
2023/09/27 04:02:37;;;;;;;26.95;23.25;;;17.60;99.90;;;;;;5094557;28;20050;-81
2023/09/27 04:05:04;;;;;;;24.00;21.27;;;17.60;99.90;;;;;;5094047;28;20389;-81
2023/09/27 04:07:30;;;;;;;26.50;23.77;;;17.60;99.90;;;;;;5058425;28;20036;-81
2023/09/27 04:09:55;;;;;;;25.92;22.83;;;17.60;99.90;;;;;;5061588;28;20042;-81
2023/09/27 04:12:21;;;;;;;26.85;22.55;;;17.60;99.90;;;;;;5100687;28;20059;-80
2023/09/27 04:14:47;;;;;;;26.95;22.23;;;17.60;99.90;;;;;;5086534;28;20096;-82
2023/09/27 04:17:13;;;;;;;26.58;23.17;;;17.60;99.90;;;;;;5112955;28;20119;-82
2023/09/27 04:19:39;;;;;;;25.63;22.40;;;17.60;99.90;;;;;;5086077;28;20551;-82
2023/09/27 04:22:05;;;;;;;22.90;20.60;;;17.50;99.90;;;;;;5059938;28;20118;-82
2023/09/27 04:24:31;;;;;;;23.35;20.88;;;17.50;99.90;;;;;;5093466;28;20384;-82
2023/09/27 04:26:58;;;;;;;24.42;21.75;;;17.50;99.90;;;;;;5097633;28;20039;-82
2023/09/27 04:29:23;;;;;;;24.27;21.75;;;17.50;99.90;;;;;;5092530;28;20050;-82
2023/09/27 04:31:49;;;;;;;24.60;21.73;;;17.50;99.90;;;;;;5078999;27;20035;-82
2023/09/27 04:34:17;;;;;;;25.73;22.73;;;17.50;99.90;;;;;;5089786;28;20403;-82
2023/09/27 04:36:42;;;;;;;24.40;21.80;;;17.40;99.90;;;;;;5078837;28;20047;-82
2023/09/27 04:39:12;;;;;;;24.90;22.20;;;17.40;99.90;;;;;;5067019;28;20038;-82
2023/09/27 04:41:39;;;;;;;26.00;22.45;;;17.50;99.90;;;;;;5097745;27;20043;-82
2023/09/27 04:44:05;;;;;;;26.40;23.63;;;17.50;99.90;;;;;;5092002;28;20039;-82
2023/09/27 04:46:32;;;;;;;26.27;23.25;;;17.40;99.90;;;;;;5110575;27;20050;-82
2023/09/27 04:48:58;;;;;;;24.15;21.65;;;17.40;99.90;;;;;;5094540;28;20039;-82
2023/09/27 04:51:24;;;;;;;25.40;22.02;;;17.30;99.90;;;;;;5095250;27;20712;-82
2023/09/27 04:53:50;;;;;;;26.80;22.73;;;17.20;99.90;;;;;;5079276;27;20043;-83
2023/09/27 04:56:17;;;;;;;26.90;23.27;;;17.10;99.90;;;;;;5103020;27;20034;-83
2023/09/27 04:58:42;;;;;;;26.52;23.73;;;17.00;99.90;;;;;;5097314;27;20047;-82
2023/09/27 05:01:10;;;;;;;24.52;21.90;;;17.00;99.90;;;;;;5081725;28;20039;-82
2023/09/27 05:03:37;;;;;;;26.42;23.42;;;17.00;99.90;;;;;;5063392;27;20039;-83
2023/09/27 05:06:04;;;;;;;26.13;23.05;;;16.90;99.90;;;;;;5083756;27;20084;-84
2023/09/27 05:08:30;;;;;;;25.83;22.85;;;16.80;99.90;;;;;;5089584;28;20040;-83
2023/09/27 05:10:56;;;;;;;26.70;23.88;;;16.90;99.90;;;;;;5093603;28;20036;-83
2023/09/27 05:13:22;;;;;;;28.77;25.17;;;17.00;99.90;;;;;;5097415;28;20038;-84
2023/09/27 05:15:49;;;;;;;32.97;27.45;;;17.00;99.90;;;;;;5102313;27;20056;-84
2023/09/27 05:18:14;;;;;;;29.98;26.27;;;17.10;99.90;;;;;;5071179;28;20131;-84
2023/09/27 05:20:40;;;;;;;31.30;27.67;;;17.10;99.90;;;;;;5066218;27;20126;-82
2023/09/27 05:23:06;;;;;;;29.55;26.42;;;17.10;99.90;;;;;;5078049;27;20138;-82
2023/09/27 05:25:33;;;;;;;30.38;27.17;;;17.10;99.90;;;;;;5079306;27;20058;-82
2023/09/27 05:27:58;;;;;;;29.73;26.52;;;17.10;99.90;;;;;;5077628;27;20122;-81
2023/09/27 05:30:25;;;;;;;28.40;25.42;;;17.00;99.90;;;;;;5069723;27;20122;-82
2023/09/27 05:32:51;;;;;;;35.28;28.23;;;17.00;99.90;;;;;;5078064;28;20039;-82
2023/09/27 05:35:17;;;;;;;32.60;26.95;;;17.10;99.90;;;;;;5078889;27;20043;-82
2023/09/27 05:37:44;;;;;;;31.42;27.00;;;17.20;99.90;;;;;;5103736;27;20053;-81
2023/09/27 05:40:10;;;;;;;30.42;27.23;;;17.10;99.90;;;;;;5078281;27;20039;-81
2023/09/27 05:42:38;;;;;;;29.30;25.77;;;17.10;99.90;;;;;;5074437;27;20027;-81
2023/09/27 05:45:04;;;;;;;31.38;27.77;;;17.10;99.90;;;;;;5085411;27;20674;-81
2023/09/27 05:47:30;;;;;;;30.08;26.88;;;17.20;99.90;;;;;;5071970;27;21522;-81
2023/09/27 05:49:57;;;;;;;32.50;29.08;;;17.20;99.90;;;;;;5085326;27;20042;-81
2023/09/27 05:52:24;;;;;;;30.23;27.02;;;17.20;99.90;;;;;;5088442;27;20036;-81
2023/09/27 05:54:51;;;;;;;29.27;26.27;;;17.30;99.90;;;;;;5094659;27;20062;-81
2023/09/27 05:57:17;;;;;;;31.25;27.33;;;17.30;99.90;;;;;;5075873;27;20043;-81
2023/09/27 05:59:45;;;;;;;32.97;27.92;;;17.30;99.90;;;;;;5087740;27;20065;-81
2023/09/27 06:02:17;;;;;;;34.53;29.90;;;17.40;99.90;;;;;;5112641;27;20620;-82
2023/09/27 06:04:44;;;;;;;33.00;27.45;;;17.40;99.90;;;;;;5096363;27;20047;-82
2023/09/27 06:07:13;;;;;;;31.92;28.45;;;17.50;99.90;;;;;;5077069;28;20114;-81
2023/09/27 06:09:44;;;;;;;33.03;29.42;;;17.60;99.90;;;;;;5092359;27;20031;-82
2023/09/27 06:12:10;;;;;;;30.67;27.17;;;17.60;99.90;;;;;;5077084;27;20130;-82
2023/09/27 06:14:36;;;;;;;31.58;27.20;;;17.60;99.90;;;;;;5096933;27;20483;-82
2023/09/27 06:17:03;;;;;;;32.38;28.92;;;17.60;99.90;;;;;;5098499;28;20063;-82
2023/09/27 06:19:31;;;;;;;28.90;25.88;;;17.70;99.90;;;;;;5084366;27;20532;-82
2023/09/27 06:22:00;;;;;;;31.95;28.55;;;17.70;99.90;;;;;;5085038;28;20144;-81
2023/09/27 06:24:29;;;;;;;30.60;27.33;;;17.70;99.90;;;;;;5076216;28;20039;-81
2023/09/27 06:26:56;;;;;;;34.67;29.17;;;17.70;99.90;;;;;;5093105;27;20046;-83
2023/09/27 06:29:21;;;;;;;30.42;27.25;;;17.70;99.90;;;;;;5093169;27;20034;-83
2023/09/27 06:31:51;;;;;;;32.78;27.92;;;17.70;99.90;;;;;;5075193;27;20041;-81
2023/09/27 06:34:17;;;;;;;32.20;28.80;;;17.80;99.90;;;;;;5097306;27;20071;-81
2023/09/27 06:36:43;;;;;;;30.15;26.52;;;17.80;99.90;;;;;;5070093;28;20043;-81
2023/09/27 06:39:13;;;;;;;30.02;26.67;;;17.80;99.90;;;;;;5103768;27;20036;-80
2023/09/27 06:41:44;;;;;;;32.53;29.00;;;17.80;99.90;;;;;;5087982;28;20475;-81
2023/09/27 06:44:10;;;;;;;31.85;28.52;;;17.90;99.90;;;;;;5081146;28;20036;-81
2023/09/27 06:46:36;;;;;;;35.47;29.25;;;17.90;99.90;;;;;;5073083;27;20174;-81
2023/09/27 06:49:03;;;;;;;36.22;29.73;;;17.90;99.90;;;;;;5107190;27;20457;-64
2023/09/27 06:51:29;;;;;;;33.88;30.17;;;17.90;99.90;;;;;;5098606;27;20042;-79
2023/09/27 06:53:56;;;;;;;33.92;30.20;;;17.90;99.90;;;;;;5089652;27;20042;-79
2023/09/27 06:56:22;;;;;;;36.33;32.40;;;18.00;99.90;;;;;;5072779;27;20047;-79
2023/09/27 06:58:51;;;;;;;32.35;28.98;;;18.10;99.90;;;;;;5087091;27;20047;-81
2023/09/27 07:01:19;;;;;;;34.22;30.52;;;18.20;99.90;;;;;;5102056;27;20039;-79
2023/09/27 07:03:45;;;;;;;33.10;28.73;;;18.30;99.90;;;;;;5082615;27;20043;-79
2023/09/27 07:06:11;;;;;;;34.55;31.13;;;18.40;99.90;;;;;;5079955;28;20036;-80
2023/09/27 07:08:37;;;;;;;34.55;28.27;;;18.50;99.90;;;;;;5103152;27;20054;-79
2023/09/27 07:11:07;;;;;;;34.42;29.60;;;18.60;99.90;;;;;;5081496;27;20031;-79
2023/09/27 07:13:34;;;;;;;30.60;27.30;;;18.70;99.90;;;;;;5095077;27;20340;-79
2023/09/27 07:16:26;;;;;;;29.13;25.98;;;18.80;99.90;;;;;;5089231;27;20058;-81
2023/09/27 07:18:53;;;;;;;30.75;27.50;;;18.80;99.90;;;;;;5105840;27;20035;-81
2023/09/27 07:21:23;;;;;;;27.95;25.08;;;18.80;99.90;;;;;;5078558;27;20035;-81
2023/09/27 07:23:49;;;;;;;30.25;26.70;;;18.90;99.90;;;;;;5094279;27;20043;-81
2023/09/27 07:26:16;;;;;;;31.30;28.05;;;18.90;99.90;;;;;;5083511;28;20054;-80
2023/09/27 07:28:47;;;;;;;33.10;27.63;;;18.90;99.90;;;;;;5075408;28;20040;-81
2023/09/27 07:31:14;;;;;;;31.15;27.85;;;19.00;99.90;;;;;;5087252;28;20177;-80
2023/09/27 07:33:40;;;;;;;31.85;28.05;;;19.10;99.90;;;;;;5087997;28;20035;-81
2023/09/27 07:36:09;;;;;;;27.00;24.40;;;19.30;99.90;;;;;;5078842;28;20115;-81
2023/09/27 07:38:37;;;;;;;27.70;24.77;;;19.20;99.90;;;;;;5060788;28;20048;-81
2023/09/27 07:41:04;;;;;;;28.00;25.00;;;19.40;99.90;;;;;;5073705;28;20079;-81
2023/09/27 07:43:30;;;;;;;31.23;26.08;;;19.40;99.90;;;;;;5065739;28;20378;-81
2023/09/27 07:45:56;;;;;;;28.65;25.55;;;19.40;99.90;;;;;;5056486;28;20120;-80
2023/09/27 07:48:24;;;;;;;29.33;26.13;;;19.40;99.90;;;;;;5082894;28;20051;-81
2023/09/27 07:50:50;;;;;;;31.88;25.80;;;19.40;99.90;;;;;;5086772;28;20403;-82
2023/09/27 07:53:16;;;;;;;29.63;26.23;;;19.60;99.90;;;;;;5091118;28;20142;-81
2023/09/27 07:55:46;;;;;;;30.08;26.88;;;19.70;99.90;;;;;;5110561;28;20613;-83
2023/09/27 07:58:12;;;;;;;30.63;27.42;;;19.80;99.90;;;;;;5093078;28;20031;-83
2023/09/27 08:00:40;;;;;;;29.58;26.23;;;19.90;99.90;;;;;;5085709;28;20413;-69
2023/09/27 08:03:17;;;;;;;26.77;24.10;;;20.10;99.90;;;;;;5102300;28;20047;-82
2023/09/27 08:05:45;;;;;;;27.90;25.00;;;20.10;99.90;;;;;;5085838;28;20035;-82
2023/09/27 08:08:12;;;;;;;26.75;23.40;;;20.10;99.90;;;;;;5094211;28;20071;-82
2023/09/27 08:10:45;;;;;;;26.92;24.02;;;20.20;99.90;;;;;;5090878;27;20043;-82
2023/09/27 08:13:15;;;;;;;27.02;24.23;;;20.40;99.90;;;;;;5087978;28;20566;-82
2023/09/27 08:15:42;;;;;;;30.27;26.55;;;20.50;99.90;;;;;;5085195;28;20035;-80
2023/09/27 08:18:08;;;;;;;26.92;23.38;;;20.50;99.90;;;;;;5087022;28;20040;-82
2023/09/27 08:20:35;;;;;;;27.48;23.65;;;20.60;99.90;;;;;;5082513;28;20035;-81
2023/09/27 08:23:01;;;;;;;26.27;23.50;;;20.80;99.90;;;;;;5071076;28;20040;-82
2023/09/27 08:25:27;;;;;;;30.48;23.52;;;20.80;99.90;;;;;;5084163;28;20064;-84
2023/09/27 08:27:53;;;;;;;26.88;23.90;;;20.90;99.90;;;;;;5082370;28;20039;-84
2023/09/27 08:30:20;;;;;;;26.08;23.45;;;21.00;99.90;;;;;;5104286;28;20092;-82
2023/09/27 08:32:46;;;;;;;26.98;23.70;;;21.00;99.90;;;;;;5063994;28;20042;-83
2023/09/27 08:35:12;;;;;;;27.45;23.70;;;21.20;99.90;;;;;;5071220;28;20125;-81
2023/09/27 08:37:41;;;;;;;25.75;22.15;;;21.20;99.90;;;;;;5085157;28;20060;-82
2023/09/27 08:40:13;;;;;;;25.17;22.25;;;21.30;99.90;;;;;;5094305;28;20089;-81
2023/09/27 08:42:40;;;;;;;25.33;21.58;;;21.50;99.90;;;;;;5092385;28;20043;-81
2023/09/27 08:45:14;;;;;;;25.38;22.67;;;21.50;99.90;;;;;;5079258;28;20119;-81
2023/09/27 08:47:42;;;;;;;23.05;20.63;;;21.50;99.90;;;;;;5084531;27;20052;-82
2023/09/27 08:50:11;;;;;;;28.40;23.20;;;21.60;99.90;;;;;;5090703;28;20050;-82
2023/09/27 08:52:38;;;;;;;23.52;20.98;;;21.70;99.90;;;;;;5090694;28;20028;-82
2023/09/27 08:55:06;;;;;;;24.85;22.17;;;21.80;99.90;;;;;;5068892;28;20032;-81
2023/09/27 08:57:36;;;;;;;25.85;21.90;;;21.80;99.90;;;;;;5091911;28;20437;-82
2023/09/27 09:00:13;;;;;;;25.75;22.23;;;21.80;99.90;;;;;;5091064;27;20039;-83
2023/09/27 09:02:43;;;;;;;23.25;20.67;;;21.80;99.90;;;;;;5062144;28;20395;-82
2023/09/27 09:05:12;;;;;;;24.02;20.73;;;22.00;99.90;;;;;;5088826;28;20103;-83
2023/09/27 09:07:42;;;;;;;21.27;18.98;;;22.20;99.90;;;;;;5069530;28;20044;-83
2023/09/27 09:10:13;;;;;;;23.98;20.33;;;22.30;99.90;;;;;;5086906;28;20127;-82
2023/09/27 09:12:41;;;;;;;21.45;18.13;;;22.40;99.90;;;;;;5087523;28;20093;-83
2023/09/27 09:15:14;;;;;;;25.05;17.58;;;22.60;99.90;;;;;;5081114;28;20118;-83
2023/09/27 09:17:42;;;;;;;18.77;16.40;;;22.60;99.90;;;;;;5073204;28;20074;-83
2023/09/27 09:20:16;;;;;;;17.42;15.68;;;22.80;99.90;;;;;;5064177;28;20613;-83
2023/09/27 09:22:46;;;;;;;20.48;17.23;;;22.80;99.90;;;;;;5072583;28;20032;-83
2023/09/27 09:25:12;;;;;;;19.50;16.42;;;22.90;99.90;;;;;;5083517;27;20136;-83
2023/09/27 09:27:40;;;;;;;17.77;14.93;;;23.00;99.90;;;;;;5071519;28;20400;-82
2023/09/27 09:30:09;;;;;;;16.88;15.05;;;23.10;99.90;;;;;;5088824;28;20067;-82
2023/09/27 09:32:49;;;;;;;15.95;14.25;;;23.10;99.90;;;;;;5073646;27;20077;-84
2023/09/27 09:35:30;;;;;;;17.88;14.48;;;23.00;99.90;;;;;;5086923;27;20039;-86
2023/09/27 09:37:58;;;;;;;17.52;14.57;;;22.90;99.90;;;;;;5076400;27;20136;-85
2023/09/27 09:40:31;;;;;;;18.23;14.75;;;23.20;99.90;;;;;;5090483;27;20077;-85
2023/09/27 09:43:00;;;;;;;18.63;14.27;;;23.30;99.90;;;;;;5073319;27;20579;-85
2023/09/27 09:45:27;;;;;;;14.50;12.45;;;23.40;99.90;;;;;;5094555;27;20145;-86
2023/09/27 09:47:53;;;;;;;14.38;12.75;;;23.60;99.90;;;;;;5076680;27;20467;-84
2023/09/27 09:50:19;;;;;;;14.43;11.68;;;23.80;99.90;;;;;;5104998;27;20761;-86
2023/09/27 09:52:58;;;;;;;13.10;9.88;;;23.80;99.90;;;;;;5079245;27;20039;-84
2023/09/27 09:55:34;;;;;;;13.63;9.50;;;23.80;99.90;;;;;;5069893;27;20189;-82
2023/09/27 09:58:13;;;;;;;13.02;9.23;;;24.10;99.90;;;;;;5109943;27;20037;-81
2023/09/27 10:00:49;;;;;;;13.18;7.22;;;24.10;99.90;;;;;;5107111;28;20040;-82
2023/09/27 10:03:20;;;;;;;10.95;8.25;;;24.00;99.90;;;;;;5116691;27;20050;-81
2023/09/27 10:05:50;;;;;;;14.15;9.30;;;24.00;99.90;;;;;;5105235;27;20043;-82
2023/09/27 10:08:19;;;;;;;12.18;8.48;;;24.10;99.90;;;;;;5091613;28;20039;-82
2023/09/27 10:10:45;;;;;;;10.32;6.80;;;24.10;99.90;;;;;;5080392;27;20035;-82
2023/09/27 10:13:12;;;;;;;11.90;5.57;;;24.20;99.90;;;;;;5089483;27;20031;-82
2023/09/27 10:15:40;;;;;;;11.05;5.20;;;24.30;99.90;;;;;;5099145;27;20074;-82
2023/09/27 10:18:21;;;;;;;7.20;5.63;;;24.30;99.90;;;;;;5080186;28;20483;-82
2023/09/27 10:21:06;;;;;;;7.88;6.18;;;24.50;99.90;;;;;;5081753;28;20122;-81
2023/09/27 10:23:47;;;;;;;9.25;6.20;;;24.50;99.90;;;;;;5097276;27;20080;-81
2023/09/27 10:26:36;;;;;;;9.98;6.22;;;24.50;99.90;;;;;;5094969;27;20043;-82
2023/09/27 10:29:06;;;;;;;9.73;6.10;;;24.60;99.90;;;;;;5076827;28;20097;-83
2023/09/27 10:31:33;;;;;;;8.63;5.70;;;24.40;99.90;;;;;;5077797;27;20043;-81
2023/09/27 10:33:59;;;;;;;10.40;6.28;;;24.50;99.90;;;;;;5075167;27;20107;-82
2023/09/27 10:36:24;;;;;;;7.43;5.90;;;24.50;99.90;;;;;;5073904;27;20067;-82
2023/09/27 10:38:50;;;;;;;9.23;6.90;;;24.50;99.90;;;;;;5085095;28;20039;-82
2023/09/27 10:41:38;;;;;;;13.02;7.60;;;24.40;99.90;;;;;;5088112;27;20122;-83
2023/09/27 10:44:04;;;;;;;9.18;6.50;;;24.30;99.90;;;;;;5098603;27;20441;-82
2023/09/27 10:46:45;;;;;;;12.00;6.53;;;24.40;99.90;;;;;;5111061;27;20031;-81
2023/09/27 10:49:11;;;;;;;6.03;4.40;;;24.30;99.90;;;;;;5084269;27;20043;-82
2023/09/27 10:51:38;;;;;;;9.00;6.20;;;24.10;99.90;;;;;;5091729;27;20049;-82
2023/09/27 10:54:11;;;;;;;9.43;6.28;;;24.30;99.90;;;;;;5095718;27;20065;-81
2023/09/27 10:56:41;;;;;;;9.77;5.93;;;24.30;99.90;;;;;;5088654;27;20043;-82
2023/09/27 10:59:07;;;;;;;8.55;5.90;;;24.30;99.90;;;;;;5087356;28;20036;-82
2023/09/27 11:01:33;;;;;;;10.35;7.47;;;24.40;99.90;;;;;;5079280;28;20455;-82
2023/09/27 11:04:03;;;;;;;12.45;8.23;;;24.30;99.90;;;;;;5071477;27;20083;-80
2023/09/27 11:06:33;;;;;;;10.90;8.48;;;24.30;99.90;;;;;;5091341;27;20415;-81
2023/09/27 11:09:07;;;;;;;10.45;6.82;;;24.30;99.90;;;;;;5074693;28;20454;-80
2023/09/27 11:11:36;;;;;;;10.63;7.20;;;24.30;99.90;;;;;;5082793;27;20542;-81
2023/09/27 11:14:01;;;;;;;11.10;7.50;;;24.30;99.90;;;;;;5089051;27;20067;-81
2023/09/27 11:16:27;;;;;;;9.57;6.95;;;24.30;99.90;;;;;;5101746;27;20415;-81
2023/09/27 11:18:56;;;;;;;9.25;6.25;;;24.30;99.90;;;;;;5086378;27;20042;-81
2023/09/27 11:21:26;;;;;;;11.57;6.55;;;24.30;99.90;;;;;;5097482;27;20110;-80
2023/09/27 11:23:56;;;;;;;8.40;6.60;;;24.30;99.90;;;;;;5077997;27;20387;-67
2023/09/27 11:26:22;;;;;;;9.10;6.10;;;24.30;99.90;;;;;;5097456;27;20087;-66
2023/09/27 11:29:08;;;;;;;11.40;7.30;;;24.20;99.90;;;;;;5128562;27;20050;-81
2023/09/27 11:31:37;;;;;;;10.30;6.47;;;24.10;99.90;;;;;;5093494;27;20031;-81
2023/09/27 11:34:19;;;;;;;11.48;6.80;;;24.20;99.90;;;;;;5089325;28;20047;-82
2023/09/27 11:36:51;;;;;;;9.27;7.32;;;24.30;99.90;;;;;;5088829;27;20696;-78
2023/09/27 11:39:19;;;;;;;10.68;7.20;;;24.30;99.90;;;;;;5070396;27;20453;-73
2023/09/27 11:41:55;;;;;;;10.02;6.80;;;24.30;99.90;;;;;;5071712;28;20043;-82
2023/09/27 11:44:26;;;;;;;10.85;8.23;;;24.30;99.90;;;;;;5075279;28;20071;-82
2023/09/27 11:47:04;;;;;;;10.52;8.18;;;24.20;99.90;;;;;;5088029;28;20066;-82
2023/09/27 11:49:30;;;;;;;10.07;8.10;;;24.20;99.90;;;;;;5088903;28;20039;-82
2023/09/27 11:51:56;;;;;;;10.18;8.77;;;24.30;99.90;;;;;;5093244;28;20045;-80
2023/09/27 11:54:21;;;;;;;11.13;9.07;;;24.30;99.90;;;;;;5078325;28;20036;-80
2023/09/27 11:56:47;;;;;;;13.73;9.68;;;24.30;99.90;;;;;;5098497;28;20403;-80
2023/09/27 11:59:13;;;;;;;11.80;8.82;;;24.40;99.90;;;;;;5095941;28;20459;-84
2023/09/27 12:20:44;;;;;;;12.38;10.95;;;24.70;99.90;;;;;;4780057;29;20088;-82
2023/09/27 12:35:53;;;;;;;12.23;10.63;;;24.60;99.90;;;;;;4857500;29;20113;-82
2023/09/27 12:39:04;;;;;;;10.95;9.43;;;24.40;99.90;;;;;;4858591;29;20152;-82
2023/09/27 12:41:47;;;;;;;12.02;10.82;;;24.80;99.90;;;;;;4876123;29;20053;-81
2023/09/27 12:52:21;;;;;;;12.73;10.00;;;24.80;99.90;;;;;;4929030;29;20067;-82
2023/09/27 12:55:42;;;;;;;12.75;10.48;;;25.00;99.90;;;;;;4998041;28;20379;-82
2023/09/27 13:01:57;;;;;;;10.48;9.27;;;25.10;99.90;;;;;;5040228;28;20049;-79
2023/09/27 13:04:39;;;;;;;10.73;8.70;;;25.30;99.90;;;;;;5015819;28;20048;-81
2023/09/27 13:07:16;;;;;;;10.35;9.25;;;25.30;99.90;;;;;;5069960;27;20059;-83
2023/09/27 13:13:24;;;;;;;9.02;8.18;;;25.00;99.90;;;;;;5089639;27;20036;-81
2023/09/27 13:16:19;;;;;;;12.65;9.00;;;25.20;99.90;;;;;;5078643;27;20769;-81
2023/09/27 13:19:11;;;;;;;11.85;8.68;;;25.00;99.90;;;;;;5079177;28;20058;-82
2023/09/27 13:21:48;;;;;;;11.05;8.32;;;25.00;99.90;;;;;;5107309;27;20086;-82
2023/09/27 13:24:56;;;;;;;10.30;9.18;;;25.00;99.90;;;;;;5082289;28;20480;-82